createdAt,value
2017-08-18T00:00:49.017Z,0
2017-08-18T00:01:50.445Z,0
2017-08-18T00:02:51.874Z,0
2017-08-18T00:03:53.308Z,0
2017-08-18T00:04:54.736Z,0
2017-08-18T00:05:56.165Z,0
2017-08-18T00:06:57.588Z,0
2017-08-18T00:07:59.017Z,0
2017-08-18T00:09:00.449Z,0
2017-08-18T00:10:01.892Z,0
2017-08-18T00:11:03.319Z,0
2017-08-18T00:12:04.744Z,0
2017-08-18T00:13:06.176Z,0
2017-08-18T00:14:07.601Z,0
2017-08-18T00:15:09.030Z,0
2017-08-18T00:16:10.464Z,0
2017-08-18T00:17:11.892Z,0
2017-08-18T00:18:13.323Z,0
2017-08-18T00:19:14.744Z,0
2017-08-18T00:20:16.170Z,0
2017-08-18T00:21:17.599Z,0
2017-08-18T00:22:19.026Z,0
2017-08-18T00:23:20.452Z,0
2017-08-18T00:24:21.879Z,0
2017-08-18T00:25:23.304Z,0
2017-08-18T00:26:24.730Z,0
2017-08-18T00:27:26.157Z,0
2017-08-18T00:28:27.585Z,0
2017-08-18T00:29:29.011Z,0
2017-08-18T00:30:30.437Z,0
2017-08-18T00:31:31.866Z,0
2017-08-18T00:32:33.293Z,0
2017-08-18T00:33:34.719Z,0
2017-08-18T00:34:36.149Z,0
2017-08-18T00:35:37.575Z,0
2017-08-18T00:36:39.016Z,0
2017-08-18T00:37:40.446Z,0
2017-08-18T00:38:41.873Z,0
2017-08-18T00:39:43.300Z,0
2017-08-18T00:40:44.726Z,0
2017-08-18T00:41:46.155Z,0
2017-08-18T00:42:47.579Z,0
2017-08-18T00:43:49.005Z,0
2017-08-18T00:44:50.453Z,0
2017-08-18T00:45:51.878Z,0
2017-08-18T00:46:53.303Z,0
2017-08-18T00:47:54.731Z,0
2017-08-18T00:48:56.158Z,0
2017-08-18T00:49:57.585Z,0
2017-08-18T00:50:59.011Z,0
2017-08-18T00:52:00.439Z,0
2017-08-18T00:53:01.864Z,0
2017-08-18T00:54:03.296Z,0
2017-08-18T00:55:04.723Z,0
2017-08-18T00:56:06.151Z,0
2017-08-18T00:57:07.576Z,0
2017-08-18T00:58:09.002Z,0
2017-08-18T00:59:10.429Z,0
2017-08-18T01:00:11.855Z,0
2017-08-18T01:01:13.286Z,0
2017-08-18T01:02:14.709Z,0
2017-08-18T01:03:16.146Z,0
2017-08-18T01:04:17.572Z,0
2017-08-18T01:05:18.998Z,0
2017-08-18T01:06:20.424Z,0
2017-08-18T01:07:21.855Z,0
2017-08-18T01:08:23.283Z,0
2017-08-18T01:09:24.709Z,0
2017-08-18T01:10:26.137Z,0
2017-08-18T01:11:27.561Z,0
2017-08-18T01:12:28.989Z,0
2017-08-18T01:13:30.415Z,0
2017-08-18T01:14:31.841Z,0
2017-08-18T01:15:33.270Z,0
2017-08-18T01:16:34.696Z,0
2017-08-18T01:17:36.123Z,0
2017-08-18T01:18:37.547Z,0
2017-08-18T01:19:38.974Z,0
2017-08-18T01:20:40.404Z,0
2017-08-18T01:21:41.833Z,0
2017-08-18T01:22:43.261Z,0
2017-08-18T01:23:44.687Z,0
2017-08-18T01:24:46.114Z,0
2017-08-18T01:25:47.541Z,0
2017-08-18T01:26:48.969Z,0
2017-08-18T01:27:50.395Z,0
2017-08-18T01:28:51.819Z,0
2017-08-18T01:29:53.247Z,0
2017-08-18T01:30:54.676Z,0
2017-08-18T01:31:56.096Z,0
2017-08-18T01:32:57.523Z,0
2017-08-18T01:33:58.952Z,0
2017-08-18T01:35:00.379Z,0
2017-08-18T01:36:01.816Z,0
2017-08-18T01:37:03.240Z,0
2017-08-18T01:38:04.669Z,0
2017-08-18T01:39:06.099Z,0
2017-08-18T01:40:07.525Z,0
2017-08-18T01:41:08.952Z,0
2017-08-18T01:42:10.380Z,0
2017-08-18T01:43:11.804Z,0
2017-08-18T01:44:13.230Z,0
2017-08-18T01:45:17.420Z,0
2017-08-18T01:46:18.848Z,0
2017-08-18T01:47:20.280Z,0
2017-08-18T01:48:21.702Z,0
2017-08-18T01:49:23.129Z,0
2017-08-18T01:50:24.560Z,0
2017-08-18T01:51:25.982Z,0
2017-08-18T01:52:27.410Z,0
2017-08-18T01:53:28.838Z,0
2017-08-18T01:54:30.263Z,0
2017-08-18T01:55:31.694Z,0
2017-08-18T01:56:33.123Z,0
2017-08-18T01:57:34.548Z,0
2017-08-18T01:58:35.981Z,0
2017-08-18T01:59:37.413Z,0
2017-08-18T02:00:38.833Z,0
2017-08-18T02:01:40.262Z,0
2017-08-18T02:02:41.690Z,0
2017-08-18T02:03:43.116Z,0
2017-08-18T02:04:44.546Z,0
2017-08-18T02:05:45.970Z,0
2017-08-18T02:06:47.401Z,0
2017-08-18T02:07:48.830Z,0
2017-08-18T02:08:50.254Z,0
2017-08-18T02:09:51.679Z,0
2017-08-18T02:10:53.109Z,0
2017-08-18T02:11:54.538Z,0
2017-08-18T02:12:55.966Z,0
2017-08-18T02:13:57.393Z,0
2017-08-18T02:14:58.819Z,0
2017-08-18T02:16:00.246Z,0
2017-08-18T02:17:01.674Z,0
2017-08-18T02:18:03.100Z,0
2017-08-18T02:19:04.529Z,0
2017-08-18T02:20:05.957Z,0
2017-08-18T02:21:07.382Z,0
2017-08-18T02:22:08.807Z,0
2017-08-18T02:23:10.237Z,0
2017-08-18T02:24:11.663Z,0
2017-08-18T02:25:13.092Z,0
2017-08-18T02:26:14.524Z,0
2017-08-18T02:27:15.943Z,0
2017-08-18T02:28:17.372Z,0
2017-08-18T02:29:18.825Z,0
2017-08-18T02:30:20.226Z,0
2017-08-18T02:31:21.653Z,0
2017-08-18T02:32:23.082Z,0
2017-08-18T02:33:24.506Z,0
2017-08-18T02:34:25.937Z,0
2017-08-18T02:35:27.366Z,0
2017-08-18T02:36:28.792Z,0
2017-08-18T02:37:30.220Z,0
2017-08-18T02:38:31.644Z,0
2017-08-18T02:39:33.072Z,0
2017-08-18T02:40:34.499Z,0
2017-08-18T02:41:35.928Z,0
2017-08-18T02:42:37.353Z,0
2017-08-18T02:43:38.781Z,0
2017-08-18T02:44:40.208Z,0
2017-08-18T02:45:41.635Z,0
2017-08-18T02:46:43.082Z,0
2017-08-18T02:47:44.506Z,0
2017-08-18T02:48:45.951Z,0
2017-08-18T02:49:47.358Z,0
2017-08-18T02:50:48.787Z,0
2017-08-18T02:51:50.211Z,0
2017-08-18T02:52:51.641Z,0
2017-08-18T02:53:53.072Z,0
2017-08-18T02:54:54.493Z,0
2017-08-18T02:55:55.922Z,0
2017-08-18T02:56:57.346Z,0
2017-08-18T02:57:58.772Z,0
2017-08-18T02:59:00.198Z,0
2017-08-18T03:00:01.633Z,0
2017-08-18T03:01:03.056Z,0
2017-08-18T03:02:04.481Z,0
2017-08-18T03:03:05.907Z,0
2017-08-18T03:04:07.337Z,0
2017-08-18T03:05:08.761Z,0
2017-08-18T03:06:10.200Z,0
2017-08-18T03:07:11.625Z,0
2017-08-18T03:08:13.054Z,0
2017-08-18T03:09:14.482Z,0
2017-08-18T03:10:15.912Z,0
2017-08-18T03:11:17.337Z,0
2017-08-18T03:12:18.767Z,0
2017-08-18T03:13:20.198Z,0
2017-08-18T03:14:21.627Z,0
2017-08-18T03:15:23.073Z,0
2017-08-18T03:16:24.486Z,0
2017-08-18T03:17:25.907Z,0
2017-08-18T03:18:27.336Z,0
2017-08-18T03:19:28.760Z,0
2017-08-18T03:20:30.188Z,0
2017-08-18T03:21:31.616Z,0
2017-08-18T03:22:33.041Z,0
2017-08-18T03:23:34.468Z,0
2017-08-18T03:24:35.896Z,0
2017-08-18T03:25:37.324Z,0
2017-08-18T03:26:38.751Z,0
2017-08-18T03:27:40.177Z,0
2017-08-18T03:28:41.606Z,0
2017-08-18T03:29:43.031Z,0
2017-08-18T03:30:44.460Z,0
2017-08-18T03:31:45.884Z,0
2017-08-18T03:32:47.315Z,0
2017-08-18T03:33:48.744Z,0
2017-08-18T03:34:50.171Z,0
2017-08-18T03:35:51.598Z,0
2017-08-18T03:36:53.023Z,0
2017-08-18T03:37:54.449Z,0
2017-08-18T03:38:55.877Z,0
2017-08-18T03:39:57.325Z,0
2017-08-18T03:40:58.733Z,0
2017-08-18T03:42:00.157Z,0
2017-08-18T03:43:01.585Z,0
2017-08-18T03:44:03.013Z,0
2017-08-18T03:45:04.437Z,0
2017-08-18T03:46:05.864Z,0
2017-08-18T03:47:07.290Z,0
2017-08-18T03:48:08.717Z,0
2017-08-18T03:49:10.143Z,0
2017-08-18T03:50:11.571Z,0
2017-08-18T03:51:12.998Z,0
2017-08-18T03:52:14.426Z,0
2017-08-18T03:53:15.852Z,0
2017-08-18T03:54:17.280Z,0
2017-08-18T03:55:18.710Z,0
2017-08-18T03:56:20.132Z,0
2017-08-18T03:57:21.586Z,0
2017-08-18T03:58:23.013Z,0
2017-08-18T03:59:24.441Z,0
2017-08-18T04:00:25.868Z,0
2017-08-18T04:01:27.295Z,0
2017-08-18T04:02:28.722Z,0
2017-08-18T04:03:30.149Z,0
2017-08-18T04:04:31.575Z,0
2017-08-18T04:05:33.004Z,0
2017-08-18T04:06:34.431Z,0
2017-08-18T04:07:35.855Z,0
2017-08-18T04:08:37.284Z,0
2017-08-18T04:09:38.711Z,0
2017-08-18T04:10:40.135Z,0
2017-08-18T04:11:41.568Z,0
2017-08-18T04:12:42.990Z,0
2017-08-18T04:13:44.428Z,0
2017-08-18T04:14:45.854Z,0
2017-08-18T04:15:47.283Z,0
2017-08-18T04:16:48.708Z,0
2017-08-18T04:17:50.132Z,0
2017-08-18T04:18:51.561Z,0
2017-08-18T04:19:52.983Z,0
2017-08-18T04:20:54.408Z,0
2017-08-18T04:21:55.835Z,0
2017-08-18T04:22:57.265Z,0
2017-08-18T04:23:58.692Z,0
2017-08-18T04:25:00.117Z,0
2017-08-18T04:26:01.557Z,0
2017-08-18T04:27:02.971Z,0
2017-08-18T04:28:04.396Z,0
2017-08-18T04:29:05.823Z,0
2017-08-18T04:30:07.251Z,0
2017-08-18T04:31:08.681Z,0
2017-08-18T04:32:10.103Z,0
2017-08-18T04:33:11.530Z,0
2017-08-18T04:34:12.955Z,0
2017-08-18T04:35:14.383Z,0
2017-08-18T04:36:15.809Z,0
2017-08-18T04:37:17.235Z,4
2017-08-18T04:38:18.661Z,4
2017-08-18T04:39:20.088Z,0
2017-08-18T04:40:21.520Z,0
2017-08-18T04:41:22.940Z,0
2017-08-18T04:42:24.390Z,0
2017-08-18T04:43:25.795Z,0
2017-08-18T04:44:27.222Z,0
2017-08-18T04:45:28.648Z,4
2017-08-18T04:46:30.075Z,4
2017-08-18T04:47:31.500Z,4
2017-08-18T04:48:32.926Z,4
2017-08-18T04:49:34.353Z,4
2017-08-18T04:50:35.783Z,4
2017-08-18T04:51:37.206Z,4
2017-08-18T04:52:38.634Z,4
2017-08-18T04:53:40.059Z,4
2017-08-18T04:54:41.486Z,4
2017-08-18T04:55:42.912Z,4
2017-08-18T04:56:44.339Z,4
2017-08-18T04:57:45.765Z,4
2017-08-18T04:58:47.190Z,4
2017-08-18T04:59:48.614Z,4
2017-08-18T05:00:50.042Z,4
2017-08-18T05:01:51.468Z,4
2017-08-18T05:02:52.901Z,8
2017-08-18T05:03:54.321Z,8
2017-08-18T05:04:55.746Z,8
2017-08-18T05:05:57.173Z,8
2017-08-18T05:06:58.600Z,8
2017-08-18T05:08:00.026Z,8
2017-08-18T05:09:01.451Z,8
2017-08-18T05:10:02.878Z,8
2017-08-18T05:11:04.304Z,8
2017-08-18T05:12:05.731Z,8
2017-08-18T05:13:07.158Z,8
2017-08-18T05:14:08.584Z,8
2017-08-18T05:15:10.012Z,8
2017-08-18T05:16:11.436Z,4
2017-08-18T05:17:12.861Z,8
2017-08-18T05:18:14.288Z,8
2017-08-18T05:19:15.722Z,8
2017-08-18T05:20:17.142Z,8
2017-08-18T05:21:18.569Z,8
2017-08-18T05:22:19.996Z,4
2017-08-18T05:23:21.419Z,4
2017-08-18T05:24:22.843Z,4
2017-08-18T05:25:24.272Z,4
2017-08-18T05:26:25.698Z,4
2017-08-18T05:27:27.122Z,4
2017-08-18T05:28:28.550Z,4
2017-08-18T05:29:29.975Z,8
2017-08-18T05:30:31.400Z,8
2017-08-18T05:31:32.824Z,4
2017-08-18T05:32:34.250Z,4
2017-08-18T05:33:35.677Z,8
2017-08-18T05:34:37.104Z,8
2017-08-18T05:35:38.531Z,8
2017-08-18T05:36:39.960Z,8
2017-08-18T05:37:41.383Z,12
2017-08-18T05:38:42.811Z,8
2017-08-18T05:39:44.233Z,8
2017-08-18T05:40:45.658Z,8
2017-08-18T05:41:47.083Z,8
2017-08-18T05:42:48.509Z,12
2017-08-18T05:43:49.938Z,12
2017-08-18T05:44:51.365Z,12
2017-08-18T05:45:52.793Z,12
2017-08-18T05:46:54.221Z,12
2017-08-18T05:47:55.650Z,16
2017-08-18T05:48:57.075Z,20
2017-08-18T05:49:58.503Z,20
2017-08-18T05:50:59.932Z,24
2017-08-18T05:52:01.364Z,28
2017-08-18T05:53:02.789Z,28
2017-08-18T05:54:04.218Z,28
2017-08-18T05:55:05.645Z,32
2017-08-18T05:56:07.074Z,32
2017-08-18T05:57:08.504Z,32
2017-08-18T05:58:09.925Z,32
2017-08-18T05:59:11.352Z,32
2017-08-18T06:00:12.782Z,32
2017-08-18T06:01:14.225Z,32
2017-08-18T06:02:15.651Z,32
2017-08-18T06:03:17.079Z,36
2017-08-18T06:04:18.506Z,36
2017-08-18T06:05:19.932Z,36
2017-08-18T06:06:21.359Z,32
2017-08-18T06:07:22.783Z,28
2017-08-18T06:08:24.211Z,24
2017-08-18T06:09:25.638Z,24
2017-08-18T06:10:27.064Z,24
2017-08-18T06:11:28.493Z,28
2017-08-18T06:12:29.921Z,28
2017-08-18T06:13:31.347Z,28
2017-08-18T06:14:32.774Z,28
2017-08-18T06:15:34.201Z,28
2017-08-18T06:16:35.629Z,32
2017-08-18T06:17:37.054Z,32
2017-08-18T06:18:38.482Z,36
2017-08-18T06:19:39.908Z,40
2017-08-18T06:20:41.337Z,40
2017-08-18T06:21:42.764Z,40
2017-08-18T06:22:44.191Z,40
2017-08-18T06:23:45.617Z,48
2017-08-18T06:24:47.049Z,48
2017-08-18T06:25:48.476Z,48
2017-08-18T06:26:49.906Z,44
2017-08-18T06:27:51.335Z,40
2017-08-18T06:28:52.767Z,40
2017-08-18T06:29:54.191Z,40
2017-08-18T06:30:55.622Z,40
2017-08-18T06:31:57.048Z,44
2017-08-18T06:32:58.474Z,44
2017-08-18T06:33:59.903Z,48
2017-08-18T06:35:01.329Z,48
2017-08-18T06:36:02.759Z,52
2017-08-18T06:37:04.185Z,52
2017-08-18T06:38:05.612Z,52
2017-08-18T06:39:07.042Z,56
2017-08-18T06:40:08.469Z,56
2017-08-18T06:41:09.895Z,56
2017-08-18T06:42:11.345Z,56
2017-08-18T06:43:12.750Z,56
2017-08-18T06:44:14.175Z,60
2017-08-18T06:45:15.603Z,56
2017-08-18T06:46:17.076Z,52
2017-08-18T06:47:18.503Z,48
2017-08-18T06:48:19.931Z,48
2017-08-18T06:49:21.357Z,44
2017-08-18T06:50:22.783Z,40
2017-08-18T06:51:24.213Z,36
2017-08-18T06:52:25.638Z,36
2017-08-18T06:53:27.066Z,36
2017-08-18T06:54:28.494Z,36
2017-08-18T06:55:29.928Z,28
2017-08-18T06:56:31.349Z,28
2017-08-18T06:57:32.776Z,24
2017-08-18T06:58:34.205Z,24
2017-08-18T06:59:35.630Z,24
2017-08-18T07:00:37.060Z,24
2017-08-18T07:01:38.487Z,24
2017-08-18T07:02:39.916Z,24
2017-08-18T07:03:41.342Z,24
2017-08-18T07:04:42.768Z,28
2017-08-18T07:05:44.188Z,28
2017-08-18T07:06:45.625Z,28
2017-08-18T07:07:47.055Z,28
2017-08-18T07:08:48.511Z,32
2017-08-18T07:09:49.946Z,32
2017-08-18T07:10:51.406Z,32
2017-08-18T07:11:52.833Z,32
2017-08-18T07:12:54.253Z,32
2017-08-18T07:13:55.694Z,28
2017-08-18T07:14:57.113Z,32
2017-08-18T07:15:58.549Z,36
2017-08-18T07:16:59.967Z,32
2017-08-18T07:18:01.396Z,36
2017-08-18T07:19:02.828Z,28
2017-08-18T07:20:04.260Z,28
2017-08-18T07:21:05.682Z,36
2017-08-18T07:22:07.111Z,48
2017-08-18T07:23:08.538Z,60
2017-08-18T07:24:09.964Z,60
2017-08-18T07:25:11.392Z,64
2017-08-18T07:26:12.817Z,68
2017-08-18T07:27:14.245Z,72
2017-08-18T07:28:15.672Z,68
2017-08-18T07:29:17.100Z,60
2017-08-18T07:30:18.529Z,56
2017-08-18T07:31:19.970Z,52
2017-08-18T07:32:21.398Z,52
2017-08-18T07:33:22.827Z,56
2017-08-18T07:34:24.256Z,52
2017-08-18T07:35:25.684Z,56
2017-08-18T07:36:27.112Z,56
2017-08-18T07:37:28.546Z,60
2017-08-18T07:38:29.967Z,56
2017-08-18T07:39:31.397Z,56
2017-08-18T07:40:32.824Z,56
2017-08-18T07:41:34.254Z,56
2017-08-18T07:42:35.683Z,64
2017-08-18T07:43:37.110Z,64
2017-08-18T07:44:38.540Z,64
2017-08-18T07:45:39.965Z,64
2017-08-18T07:46:41.392Z,64
2017-08-18T07:47:42.838Z,68
2017-08-18T07:48:44.249Z,64
2017-08-18T07:49:45.683Z,64
2017-08-18T07:50:47.110Z,64
2017-08-18T07:51:48.540Z,64
2017-08-18T07:52:49.965Z,68
2017-08-18T07:53:51.401Z,68
2017-08-18T07:54:52.829Z,72
2017-08-18T07:55:54.256Z,68
2017-08-18T07:56:55.682Z,68
2017-08-18T07:57:57.112Z,72
2017-08-18T07:58:58.544Z,72
2017-08-18T07:59:59.971Z,76
2017-08-18T08:01:01.400Z,84
2017-08-18T08:02:02.827Z,84
2017-08-18T08:03:04.257Z,84
2017-08-18T08:04:05.686Z,88
2017-08-18T08:05:07.112Z,84
2017-08-18T08:06:08.542Z,88
2017-08-18T08:07:09.968Z,88
2017-08-18T08:08:11.400Z,88
2017-08-18T08:09:12.825Z,84
2017-08-18T08:10:14.254Z,84
2017-08-18T08:11:15.682Z,84
2017-08-18T08:12:17.112Z,84
2017-08-18T08:13:18.544Z,84
2017-08-18T08:14:19.974Z,84
2017-08-18T08:15:21.402Z,84
2017-08-18T08:16:22.829Z,88
2017-08-18T08:17:24.263Z,88
2017-08-18T08:18:25.685Z,88
2017-08-18T08:19:27.115Z,88
2017-08-18T08:20:28.544Z,84
2017-08-18T08:21:29.971Z,88
2017-08-18T08:22:31.402Z,84
2017-08-18T08:23:32.826Z,84
2017-08-18T08:24:34.254Z,84
2017-08-18T08:25:35.686Z,84
2017-08-18T08:26:37.112Z,84
2017-08-18T08:27:38.538Z,84
2017-08-18T08:28:39.976Z,84
2017-08-18T08:29:41.405Z,88
2017-08-18T08:30:42.831Z,88
2017-08-18T08:31:44.259Z,92
2017-08-18T08:32:45.688Z,96
2017-08-18T08:33:47.118Z,108
2017-08-18T08:34:48.551Z,116
2017-08-18T08:35:49.975Z,124
2017-08-18T08:36:51.405Z,128
2017-08-18T08:37:52.835Z,140
2017-08-18T08:38:54.261Z,140
2017-08-18T08:39:55.692Z,140
2017-08-18T08:40:57.120Z,144
2017-08-18T08:41:58.548Z,140
2017-08-18T08:42:59.976Z,140
2017-08-18T08:44:01.419Z,140
2017-08-18T08:45:02.850Z,140
2017-08-18T08:46:04.287Z,140
2017-08-18T08:47:05.718Z,136
2017-08-18T08:48:07.145Z,132
2017-08-18T08:49:08.576Z,128
2017-08-18T08:50:10.005Z,124
2017-08-18T08:51:11.435Z,128
2017-08-18T08:52:12.866Z,136
2017-08-18T08:53:14.291Z,148
2017-08-18T08:54:15.721Z,160
2017-08-18T08:55:17.154Z,176
2017-08-18T08:56:18.583Z,188
2017-08-18T08:57:20.013Z,196
2017-08-18T08:58:21.439Z,204
2017-08-18T08:59:22.871Z,204
2017-08-18T09:00:24.300Z,204
2017-08-18T09:01:25.729Z,204
2017-08-18T09:02:27.158Z,204
2017-08-18T09:03:28.586Z,204
2017-08-18T09:04:30.018Z,204
2017-08-18T09:05:31.449Z,212
2017-08-18T09:06:32.874Z,212
2017-08-18T09:07:34.310Z,208
2017-08-18T09:08:35.742Z,208
2017-08-18T09:09:37.175Z,216
2017-08-18T09:10:38.599Z,220
2017-08-18T09:11:40.028Z,224
2017-08-18T09:12:41.457Z,224
2017-08-18T09:13:42.890Z,224
2017-08-18T09:14:44.322Z,224
2017-08-18T09:15:45.750Z,220
2017-08-18T09:16:47.181Z,212
2017-08-18T09:17:48.606Z,208
2017-08-18T09:18:50.035Z,200
2017-08-18T09:19:51.469Z,204
2017-08-18T09:20:52.898Z,204
2017-08-18T09:21:54.328Z,196
2017-08-18T09:22:55.758Z,168
2017-08-18T09:23:57.187Z,168
2017-08-18T09:24:58.621Z,188
2017-08-18T09:26:00.052Z,188
2017-08-18T09:27:01.485Z,184
2017-08-18T09:28:03.003Z,192
2017-08-18T09:29:04.434Z,192
2017-08-18T09:30:05.868Z,172
2017-08-18T09:31:07.293Z,180
2017-08-18T09:32:08.724Z,160
2017-08-18T09:33:10.154Z,164
2017-08-18T09:34:11.583Z,164
2017-08-18T09:35:13.016Z,140
2017-08-18T09:36:14.449Z,128
2017-08-18T09:37:15.880Z,140
2017-08-18T09:38:17.310Z,156
2017-08-18T09:39:18.739Z,136
2017-08-18T09:40:20.171Z,148
2017-08-18T09:41:21.607Z,148
2017-08-18T09:42:23.035Z,144
2017-08-18T09:43:24.465Z,164
2017-08-18T09:44:25.896Z,192
2017-08-18T09:45:27.324Z,200
2017-08-18T09:46:28.757Z,212
2017-08-18T09:47:30.186Z,232
2017-08-18T09:48:31.616Z,228
2017-08-18T09:49:33.049Z,220
2017-08-18T09:50:34.478Z,216
2017-08-18T09:51:35.910Z,220
2017-08-18T09:52:37.339Z,212
2017-08-18T09:53:38.772Z,228
2017-08-18T09:54:40.200Z,228
2017-08-18T09:55:41.631Z,224
2017-08-18T09:56:43.059Z,220
2017-08-18T09:57:44.494Z,216
2017-08-18T09:58:45.926Z,208
2017-08-18T09:59:47.357Z,200
2017-08-18T10:00:48.784Z,196
2017-08-18T10:01:50.216Z,192
2017-08-18T10:02:51.648Z,184
2017-08-18T10:03:53.078Z,152
2017-08-18T10:04:54.510Z,168
2017-08-18T10:05:55.938Z,172
2017-08-18T10:06:57.367Z,180
2017-08-18T10:07:58.801Z,188
2017-08-18T10:09:00.233Z,200
2017-08-18T10:10:01.662Z,204
2017-08-18T10:11:03.091Z,204
2017-08-18T10:12:04.521Z,212
2017-08-18T10:13:05.953Z,228
2017-08-18T10:14:07.383Z,248
2017-08-18T10:15:08.813Z,248
2017-08-18T10:16:10.243Z,244
2017-08-18T10:17:11.675Z,248
2017-08-18T10:18:13.105Z,236
2017-08-18T10:19:14.535Z,248
2017-08-18T10:20:15.997Z,252
2017-08-18T10:21:17.426Z,248
2017-08-18T10:22:18.854Z,248
2017-08-18T10:23:20.288Z,240
2017-08-18T10:24:21.721Z,236
2017-08-18T10:25:23.150Z,240
2017-08-18T10:26:24.582Z,236
2017-08-18T10:27:26.012Z,232
2017-08-18T10:28:27.440Z,228
2017-08-18T10:29:28.872Z,228
2017-08-18T10:30:30.303Z,224
2017-08-18T10:31:31.733Z,216
2017-08-18T10:32:33.166Z,212
2017-08-18T10:33:34.598Z,204
2017-08-18T10:34:36.030Z,208
2017-08-18T10:35:37.459Z,212
2017-08-18T10:36:38.891Z,208
2017-08-18T10:37:40.321Z,208
2017-08-18T10:38:41.752Z,208
2017-08-18T10:39:43.183Z,208
2017-08-18T10:40:44.619Z,208
2017-08-18T10:41:46.083Z,208
2017-08-18T10:42:47.513Z,212
2017-08-18T10:43:48.945Z,216
2017-08-18T10:44:50.374Z,224
2017-08-18T10:45:51.839Z,220
2017-08-18T10:46:53.275Z,216
2017-08-18T10:47:54.703Z,212
2017-08-18T10:48:56.135Z,200
2017-08-18T10:49:57.565Z,188
2017-08-18T10:50:58.995Z,188
2017-08-18T10:52:00.424Z,192
2017-08-18T10:53:01.859Z,200
2017-08-18T10:54:03.288Z,216
2017-08-18T10:55:04.725Z,228
2017-08-18T10:56:06.149Z,228
2017-08-18T10:57:07.578Z,228
2017-08-18T10:58:09.009Z,208
2017-08-18T10:59:10.438Z,192
2017-08-18T11:00:11.868Z,176
2017-08-18T11:01:13.307Z,164
2017-08-18T11:02:14.736Z,152
2017-08-18T11:03:16.165Z,144
2017-08-18T11:04:17.596Z,136
2017-08-18T11:05:19.027Z,132
2017-08-18T11:06:20.458Z,124
2017-08-18T11:07:21.886Z,120
2017-08-18T11:08:23.316Z,116
2017-08-18T11:09:24.746Z,120
2017-08-18T11:10:26.180Z,128
2017-08-18T11:11:27.613Z,140
2017-08-18T11:12:29.043Z,156
2017-08-18T11:13:30.471Z,168
2017-08-18T11:14:31.903Z,192
2017-08-18T11:15:33.335Z,208
2017-08-18T11:16:34.767Z,200
2017-08-18T11:17:36.197Z,208
2017-08-18T11:18:37.632Z,220
2017-08-18T11:19:39.064Z,224
2017-08-18T11:20:40.495Z,224
2017-08-18T11:21:41.926Z,220
2017-08-18T11:22:43.358Z,212
2017-08-18T11:23:44.788Z,204
2017-08-18T11:24:46.223Z,188
2017-08-18T11:25:47.656Z,176
2017-08-18T11:26:49.087Z,176
2017-08-18T11:27:50.514Z,188
2017-08-18T11:28:51.948Z,184
2017-08-18T11:29:53.376Z,180
2017-08-18T11:30:54.808Z,176
2017-08-18T11:31:56.238Z,168
2017-08-18T11:32:57.670Z,176
2017-08-18T11:33:59.097Z,180
2017-08-18T11:35:00.525Z,188
2017-08-18T11:36:01.957Z,188
2017-08-18T11:37:03.404Z,180
2017-08-18T11:38:04.832Z,176
2017-08-18T11:39:06.264Z,176
2017-08-18T11:40:07.708Z,180
2017-08-18T11:41:09.138Z,176
2017-08-18T11:42:10.568Z,176
2017-08-18T11:43:12.002Z,180
2017-08-18T11:44:13.429Z,184
2017-08-18T11:45:14.860Z,188
2017-08-18T11:46:16.291Z,192
2017-08-18T11:47:17.783Z,192
2017-08-18T11:48:19.241Z,196
2017-08-18T11:49:20.672Z,200
2017-08-18T11:50:22.100Z,204
2017-08-18T11:51:23.534Z,204
2017-08-18T11:52:24.964Z,200
2017-08-18T11:53:26.394Z,200
2017-08-18T11:54:27.825Z,188
2017-08-18T11:55:29.253Z,180
2017-08-18T11:56:30.687Z,176
2017-08-18T11:57:32.119Z,172
2017-08-18T11:58:33.544Z,168
2017-08-18T11:59:34.979Z,160
2017-08-18T12:00:36.408Z,156
2017-08-18T12:01:37.840Z,152
2017-08-18T12:02:39.272Z,132
2017-08-18T12:03:40.699Z,112
2017-08-18T12:04:42.131Z,92
2017-08-18T12:05:43.560Z,80
2017-08-18T12:06:44.991Z,80
2017-08-18T12:07:46.420Z,68
2017-08-18T12:08:47.909Z,60
2017-08-18T12:09:49.338Z,56
2017-08-18T12:10:50.769Z,44
2017-08-18T12:11:52.200Z,44
2017-08-18T12:12:53.627Z,40
2017-08-18T12:13:55.057Z,40
2017-08-18T12:14:56.488Z,40
2017-08-18T12:15:57.916Z,32
2017-08-18T12:16:59.345Z,36
2017-08-18T12:18:00.802Z,32
2017-08-18T12:19:02.232Z,32
2017-08-18T12:20:03.660Z,24
2017-08-18T12:21:05.109Z,28
2017-08-18T12:22:06.539Z,36
2017-08-18T12:23:07.971Z,24
2017-08-18T12:24:09.399Z,16
2017-08-18T12:25:10.829Z,12
2017-08-18T12:26:12.270Z,16
2017-08-18T12:27:13.698Z,20
2017-08-18T12:28:15.125Z,12
2017-08-18T12:29:16.555Z,8
2017-08-18T12:30:17.985Z,8
2017-08-18T12:31:19.419Z,8
2017-08-18T12:32:20.847Z,24
2017-08-18T12:33:22.276Z,68
2017-08-18T12:34:23.709Z,104
2017-08-18T12:35:25.137Z,100
2017-08-18T12:36:26.570Z,104
2017-08-18T12:37:27.999Z,132
2017-08-18T12:38:29.431Z,144
2017-08-18T12:39:30.861Z,148
2017-08-18T12:40:32.295Z,144
2017-08-18T12:41:33.720Z,136
2017-08-18T12:42:35.152Z,128
2017-08-18T12:43:36.593Z,112
2017-08-18T12:44:38.012Z,104
2017-08-18T12:45:39.440Z,92
2017-08-18T12:46:40.869Z,92
2017-08-18T12:47:42.298Z,100
2017-08-18T12:48:43.749Z,116
2017-08-18T12:49:45.180Z,116
2017-08-18T12:50:46.610Z,116
2017-08-18T12:51:48.040Z,112
2017-08-18T12:52:49.471Z,116
2017-08-18T12:53:50.902Z,116
2017-08-18T12:54:52.332Z,116
2017-08-18T12:55:53.764Z,116
2017-08-18T12:56:55.193Z,100
2017-08-18T12:57:56.624Z,104
2017-08-18T12:58:58.073Z,104
2017-08-18T12:59:59.505Z,100
2017-08-18T13:01:00.939Z,100
2017-08-18T13:02:02.366Z,92
2017-08-18T13:03:03.796Z,88
2017-08-18T13:04:05.225Z,92
2017-08-18T13:05:06.656Z,96
2017-08-18T13:06:08.084Z,92
2017-08-18T13:07:09.511Z,88
2017-08-18T13:08:10.942Z,88
2017-08-18T13:09:12.370Z,92
2017-08-18T13:10:13.801Z,100
2017-08-18T13:11:15.231Z,112
2017-08-18T13:12:16.666Z,116
2017-08-18T13:13:18.100Z,116
2017-08-18T13:14:19.529Z,112
2017-08-18T13:15:20.961Z,112
2017-08-18T13:16:22.392Z,108
2017-08-18T13:17:23.826Z,112
2017-08-18T13:18:25.253Z,112
2017-08-18T13:19:26.684Z,116
2017-08-18T13:20:28.115Z,116
2017-08-18T13:21:29.545Z,112
2017-08-18T13:22:30.980Z,112
2017-08-18T13:23:32.411Z,112
2017-08-18T13:24:33.840Z,108
2017-08-18T13:25:35.270Z,104
2017-08-18T13:26:36.702Z,112
2017-08-18T13:27:38.133Z,116
2017-08-18T13:28:39.565Z,112
2017-08-18T13:29:40.991Z,100
2017-08-18T13:30:42.423Z,92
2017-08-18T13:31:43.860Z,84
2017-08-18T13:32:45.298Z,100
2017-08-18T13:33:46.724Z,124
2017-08-18T13:34:48.158Z,120
2017-08-18T13:35:49.585Z,112
2017-08-18T13:36:51.018Z,108
2017-08-18T13:37:52.448Z,104
2017-08-18T13:38:53.883Z,100
2017-08-18T13:39:55.311Z,92
2017-08-18T13:40:56.739Z,84
2017-08-18T13:41:58.168Z,68
2017-08-18T13:42:59.596Z,68
2017-08-18T13:44:01.028Z,64
2017-08-18T13:45:02.455Z,64
2017-08-18T13:46:03.886Z,56
2017-08-18T13:47:05.316Z,48
2017-08-18T13:48:06.743Z,48
2017-08-18T13:49:08.173Z,60
2017-08-18T13:50:09.602Z,60
2017-08-18T13:51:11.030Z,64
2017-08-18T13:52:12.459Z,68
2017-08-18T13:53:13.887Z,68
2017-08-18T13:54:15.313Z,68
2017-08-18T13:55:16.746Z,60
2017-08-18T13:56:18.174Z,52
2017-08-18T13:57:19.605Z,56
2017-08-18T13:58:21.033Z,56
2017-08-18T13:59:22.460Z,60
2017-08-18T14:00:23.890Z,68
2017-08-18T14:01:25.321Z,80
2017-08-18T14:02:26.751Z,80
2017-08-18T14:03:28.184Z,84
2017-08-18T14:04:29.611Z,80
2017-08-18T14:05:31.070Z,76
2017-08-18T14:06:32.480Z,80
2017-08-18T14:07:33.900Z,80
2017-08-18T14:08:35.329Z,80
2017-08-18T14:09:36.758Z,80
2017-08-18T14:10:38.187Z,80
2017-08-18T14:11:39.613Z,76
2017-08-18T14:12:41.047Z,76
2017-08-18T14:13:42.475Z,72
2017-08-18T14:14:43.903Z,72
2017-08-18T14:15:45.332Z,68
2017-08-18T14:16:48.140Z,68
2017-08-18T14:17:49.527Z,68
2017-08-18T14:18:50.953Z,68
2017-08-18T14:19:52.384Z,68
2017-08-18T14:20:53.812Z,68
2017-08-18T14:21:55.242Z,68
2017-08-18T14:22:56.670Z,68
2017-08-18T14:23:58.097Z,72
2017-08-18T14:24:59.530Z,72
2017-08-18T14:26:00.974Z,72
2017-08-18T14:27:02.400Z,68
2017-08-18T14:28:03.834Z,68
2017-08-18T14:29:05.262Z,68
2017-08-18T14:30:06.692Z,68
2017-08-18T14:31:08.119Z,64
2017-08-18T14:32:09.547Z,64
2017-08-18T14:33:10.976Z,60
2017-08-18T14:34:12.408Z,64
2017-08-18T14:35:13.837Z,60
2017-08-18T14:36:15.283Z,60
2017-08-18T14:37:16.699Z,60
2017-08-18T14:38:18.145Z,56
2017-08-18T14:39:19.573Z,56